createdAt,value
2023-04-04T00:00:44.065Z,91.30
2023-04-04T00:03:13.929Z,91.60
2023-04-04T00:05:42.016Z,91.70
2023-04-04T00:08:10.246Z,92.00
2023-04-04T00:10:38.633Z,92.40
2023-04-04T00:13:07.806Z,92.50
2023-04-04T00:15:36.525Z,93.00
2023-04-04T00:18:05.071Z,93.60
2023-04-04T00:20:34.522Z,93.30
2023-04-04T00:23:02.824Z,93.40
2023-04-04T00:25:30.835Z,93.50
2023-04-04T00:28:01.251Z,93.80
2023-04-04T00:30:29.779Z,93.90
2023-04-04T00:32:58.205Z,93.90
2023-04-04T00:35:26.712Z,94.20
2023-04-04T00:37:56.280Z,94.30
2023-04-04T00:40:24.484Z,94.40
2023-04-04T00:42:52.998Z,94.50
2023-04-04T00:45:21.701Z,94.60
2023-04-04T00:47:51.423Z,94.60
2023-04-04T00:50:19.873Z,95.10
2023-04-04T00:52:48.203Z,95.40
2023-04-04T00:55:17.986Z,95.50
2023-04-04T00:57:47.087Z,95.50
2023-04-04T01:00:16.818Z,95.50
2023-04-04T01:02:45.154Z,95.80
2023-04-04T01:05:13.511Z,96.30
2023-04-04T01:07:42.768Z,96.30
2023-04-04T01:10:12.938Z,96.40
2023-04-04T01:12:43.591Z,96.40
2023-04-04T01:15:12.470Z,97.00
2023-04-04T01:17:41.879Z,97.10
2023-04-04T01:20:16.021Z,97.00
2023-04-04T01:22:50.572Z,97.10
2023-04-04T01:25:20.273Z,97.40
2023-04-04T01:27:57.406Z,97.40
2023-04-04T01:30:28.867Z,98.20
2023-04-04T01:33:02.548Z,98.30
2023-04-04T01:35:36.981Z,98.40
2023-04-04T01:38:15.505Z,98.20
2023-04-04T01:40:49.792Z,98.30
2023-04-04T01:43:20.170Z,98.40
2023-04-04T01:45:50.749Z,98.50
2023-04-04T01:48:19.823Z,98.40
2023-04-04T01:50:52.534Z,98.50
2023-04-04T01:53:21.992Z,98.40
2023-04-04T01:55:50.085Z,98.30
2023-04-04T01:58:20.191Z,98.30
2023-04-04T02:00:48.319Z,98.20
2023-04-04T02:03:16.823Z,98.20
2023-04-04T02:05:44.856Z,98.10
2023-04-04T02:08:13.414Z,98.00
2023-04-04T02:10:49.267Z,98.30
2023-04-04T02:13:20.080Z,98.20
2023-04-04T02:15:50.150Z,98.10
2023-04-04T02:18:18.496Z,98.10
2023-04-04T02:20:46.745Z,98.30
2023-04-04T02:23:14.806Z,98.00
2023-04-04T02:25:43.091Z,98.00
2023-04-04T02:28:11.479Z,98.00
2023-04-04T02:30:41.301Z,98.00
2023-04-04T02:33:09.631Z,98.00
2023-04-04T02:35:38.195Z,98.00
2023-04-04T02:38:07.565Z,98.00
2023-04-04T02:40:43.294Z,97.90
2023-04-04T02:43:11.605Z,97.80
2023-04-04T02:45:41.673Z,97.70
2023-04-04T02:48:21.062Z,97.70
2023-04-04T02:50:51.775Z,97.90
2023-04-04T02:53:20.046Z,97.70
2023-04-04T02:55:52.524Z,97.70
2023-04-04T02:58:20.736Z,97.70
2023-04-04T03:00:56.644Z,97.70
2023-04-04T03:03:29.458Z,97.70
2023-04-04T03:05:59.318Z,97.70
2023-04-04T03:08:28.248Z,97.60
2023-04-04T03:10:59.570Z,97.60
2023-04-04T03:13:27.904Z,97.60
2023-04-04T03:16:02.846Z,97.70
2023-04-04T03:18:35.647Z,97.80
2023-04-04T03:21:04.761Z,97.70
2023-04-04T03:23:32.801Z,97.80
2023-04-04T03:26:00.842Z,97.80
2023-04-04T03:28:29.402Z,97.80
2023-04-04T03:30:57.663Z,97.80
2023-04-04T03:33:27.525Z,97.80
2023-04-04T03:35:55.620Z,97.90
2023-04-04T03:38:23.890Z,97.90
2023-04-04T03:40:52.178Z,97.90
2023-04-04T03:43:20.463Z,97.90
2023-04-04T03:45:49.262Z,97.90
2023-04-04T03:48:17.875Z,97.90
2023-04-04T03:50:47.349Z,97.90
2023-04-04T03:53:16.764Z,98.00
2023-04-04T03:55:45.080Z,97.90
2023-04-04T03:58:13.404Z,97.80
2023-04-04T04:00:41.785Z,97.70
2023-04-04T04:03:10.314Z,97.60
2023-04-04T04:05:38.490Z,97.60
2023-04-04T04:08:12.576Z,97.60
2023-04-04T04:10:40.861Z,97.70
2023-04-04T04:13:09.259Z,97.80
2023-04-04T04:15:38.735Z,97.80
2023-04-04T04:18:11.105Z,97.80
2023-04-04T04:20:39.368Z,97.90
2023-04-04T04:23:09.178Z,97.90
2023-04-04T04:25:37.246Z,98.00
2023-04-04T04:28:14.216Z,98.10
2023-04-04T04:30:42.777Z,98.20
2023-04-04T04:33:11.627Z,98.10
2023-04-04T04:35:48.719Z,98.10
2023-04-04T04:38:18.511Z,98.20
2023-04-04T04:40:46.728Z,98.30
2023-04-04T04:43:21.115Z,98.60
2023-04-04T04:45:51.355Z,98.70
2023-04-04T04:48:20.337Z,98.60
2023-04-04T04:50:53.077Z,98.60
2023-04-04T04:53:34.656Z,98.50
2023-04-04T04:56:03.747Z,98.40
2023-04-04T04:58:33.213Z,98.40
2023-04-04T05:01:03.441Z,98.40
2023-04-04T05:03:39.560Z,98.30
2023-04-04T05:06:10.681Z,98.20
2023-04-04T05:08:40.975Z,98.20
2023-04-04T05:11:24.341Z,98.10
2023-04-04T05:13:53.462Z,98.00
2023-04-04T05:16:22.783Z,97.90
2023-04-04T05:18:52.552Z,97.80
2023-04-04T05:21:20.792Z,97.90
2023-04-04T05:23:51.940Z,97.80
2023-04-04T05:26:21.759Z,97.40
2023-04-04T05:28:52.799Z,97.30
2023-04-04T05:31:21.806Z,97.20
2023-04-04T05:33:54.204Z,97.10
2023-04-04T05:36:30.310Z,97.20
2023-04-04T05:39:05.811Z,97.30
2023-04-04T05:41:37.638Z,97.50
2023-04-04T05:44:13.365Z,97.20
2023-04-04T05:46:41.635Z,97.10
2023-04-04T05:49:09.767Z,96.90
2023-04-04T05:51:42.104Z,96.60
2023-04-04T05:54:14.712Z,96.30
2023-04-04T05:56:44.231Z,96.00
2023-04-04T05:59:24.047Z,95.80
2023-04-04T06:01:57.634Z,95.60
2023-04-04T06:04:26.381Z,95.40
2023-04-04T06:06:56.700Z,95.40
2023-04-04T06:09:26.420Z,95.10
2023-04-04T06:11:54.798Z,94.80
2023-04-04T06:14:23.645Z,94.60
2023-04-04T06:16:52.677Z,94.40
2023-04-04T06:19:21.773Z,94.20
2023-04-04T06:21:50.377Z,94.10
2023-04-04T06:24:18.429Z,94.00
2023-04-04T06:26:51.678Z,93.80
2023-04-04T06:29:22.902Z,93.60
2023-04-04T06:31:54.444Z,93.40
2023-04-04T06:34:34.208Z,93.10
2023-04-04T06:37:03.685Z,92.30
2023-04-04T06:39:38.061Z,91.70
2023-04-04T06:42:14.378Z,91.10
2023-04-04T06:44:48.454Z,90.50
2023-04-04T06:47:16.772Z,89.80
2023-04-04T06:49:44.825Z,88.50
2023-04-04T06:52:13.873Z,87.50
2023-04-04T06:54:42.501Z,83.70
2023-04-04T06:57:12.075Z,80.00
2023-04-04T06:59:40.084Z,79.10
2023-04-04T07:02:08.425Z,78.60
2023-04-04T07:04:38.031Z,76.40
2023-04-04T07:07:06.297Z,73.70
2023-04-04T07:09:34.335Z,71.50
2023-04-04T07:12:02.752Z,70.50
2023-04-04T07:14:32.349Z,68.30
2023-04-04T07:19:29.049Z,64.80
2023-04-04T07:21:57.600Z,62.30
2023-04-04T07:24:25.750Z,61.20
2023-04-04T07:26:54.090Z,59.60
2023-04-04T07:29:24.081Z,60.10
2023-04-04T07:31:53.807Z,58.20
2023-04-04T07:34:21.882Z,57.00
2023-04-04T07:36:50.228Z,54.50
2023-04-04T07:39:18.330Z,53.90
2023-04-04T07:41:48.635Z,51.40
2023-04-04T07:44:16.681Z,50.90
2023-04-04T07:46:47.806Z,51.30
2023-04-04T07:49:19.471Z,50.60
2023-04-04T07:51:49.126Z,50.60
2023-04-04T07:54:17.168Z,49.60
2023-04-04T07:56:46.225Z,50.00
2023-04-04T07:59:14.603Z,49.40
2023-04-04T08:01:44.624Z,48.70
2023-04-04T08:04:14.185Z,47.40
2023-04-04T08:06:43.712Z,46.10
2023-04-04T08:09:12.155Z,46.20
2023-04-04T08:11:40.336Z,45.40
2023-04-04T08:14:12.002Z,44.10
2023-04-04T08:16:40.219Z,43.50
2023-04-04T08:19:08.906Z,42.50
2023-04-04T08:21:36.954Z,41.90
2023-04-04T08:24:07.926Z,41.70
2023-04-04T08:26:36.014Z,41.10
2023-04-04T08:29:04.528Z,40.40
2023-04-04T08:31:34.224Z,40.30
2023-04-04T08:34:02.617Z,39.10
2023-04-04T08:36:30.695Z,39.00
2023-04-04T08:38:59.031Z,38.40
2023-04-04T08:41:29.161Z,37.40
2023-04-04T08:44:02.880Z,37.70
2023-04-04T08:46:31.589Z,36.70
2023-04-04T08:49:01.011Z,36.20
2023-04-04T08:51:31.824Z,35.30
2023-04-04T08:54:02.266Z,35.50
2023-04-04T08:56:31.768Z,34.10
2023-04-04T08:59:01.526Z,35.10
2023-04-04T09:01:30.162Z,33.40
2023-04-04T09:03:58.993Z,32.70
2023-04-04T09:06:28.063Z,31.60
2023-04-04T09:09:14.894Z,31.40
2023-04-04T09:11:46.768Z,31.20
2023-04-04T09:14:15.188Z,30.60
2023-04-04T09:16:43.264Z,30.10
2023-04-04T09:19:11.555Z,30.40
2023-04-04T09:21:39.587Z,30.00
2023-04-04T09:24:08.512Z,29.40
2023-04-04T09:26:49.577Z,29.20
2023-04-04T09:29:19.292Z,28.60
2023-04-04T09:31:49.290Z,28.00
2023-04-04T09:34:19.989Z,27.70
2023-04-04T09:36:48.880Z,26.70
2023-04-04T09:39:17.587Z,26.70
2023-04-04T09:41:46.453Z,27.90
2023-04-04T09:44:18.243Z,28.70
2023-04-04T09:46:46.288Z,28.40
2023-04-04T09:49:21.460Z,28.50
2023-04-04T09:51:51.058Z,27.20
2023-04-04T09:54:29.402Z,26.50
2023-04-04T09:56:58.568Z,26.80
2023-04-04T09:59:28.128Z,26.70
2023-04-04T10:01:56.413Z,26.80
2023-04-04T10:04:27.250Z,26.50
2023-04-04T10:06:55.837Z,26.00
2023-04-04T10:09:25.982Z,26.60
2023-04-04T10:12:09.835Z,27.00
2023-04-04T10:14:39.332Z,27.20
2023-04-04T10:17:11.675Z,26.30
2023-04-04T10:19:40.463Z,25.60
2023-04-04T10:22:09.999Z,26.10
2023-04-04T10:24:38.104Z,25.30
2023-04-04T10:27:06.484Z,25.10
2023-04-04T10:29:34.810Z,24.90
2023-04-04T10:32:08.791Z,24.40
2023-04-04T10:34:42.218Z,23.80
2023-04-04T10:37:14.691Z,22.30
2023-04-04T10:39:51.538Z,22.50
2023-04-04T10:42:20.795Z,22.30
2023-04-04T10:44:49.103Z,21.90
2023-04-04T10:47:22.575Z,21.80
2023-04-04T10:49:52.886Z,21.40
2023-04-04T10:52:26.387Z,21.10
2023-04-04T10:54:58.320Z,20.80
2023-04-04T10:57:28.387Z,20.30
2023-04-04T11:00:01.696Z,19.90
2023-04-04T11:02:55.748Z,19.60
2023-04-04T11:05:26.653Z,19.70
2023-04-04T11:10:31.884Z,20.00
2023-04-04T11:13:12.691Z,19.10
2023-04-04T11:15:53.130Z,19.20
2023-04-04T11:18:33.286Z,19.20
2023-04-04T11:21:03.745Z,20.00
2023-04-04T11:24:16.806Z,19.30
2023-04-04T11:26:47.142Z,19.40
2023-04-04T11:29:26.410Z,19.00
2023-04-04T11:31:54.648Z,18.80
2023-04-04T11:34:34.312Z,18.50
2023-04-04T11:37:17.575Z,18.70
2023-04-04T11:39:50.750Z,19.00
2023-04-04T11:42:21.902Z,18.90
2023-04-04T11:45:07.757Z,19.20
2023-04-04T11:47:35.966Z,18.80
2023-04-04T11:50:11.147Z,18.80
2023-04-04T11:52:39.434Z,18.70
2023-04-04T11:55:16.908Z,19.00
2023-04-04T11:57:44.988Z,19.00
2023-04-04T12:00:28.963Z,18.90
2023-04-04T12:02:57.415Z,18.50
2023-04-04T12:05:28.110Z,18.20
2023-04-04T12:07:56.546Z,18.50
2023-04-04T12:13:31.707Z,18.70
2023-04-04T12:15:59.798Z,18.90
2023-04-04T12:18:28.952Z,18.60
2023-04-04T12:20:58.294Z,18.80
2023-04-04T12:23:27.610Z,19.10
2023-04-04T12:25:57.685Z,18.40
2023-04-04T12:28:27.271Z,18.90
2023-04-04T12:30:56.940Z,18.90
2023-04-04T12:33:26.493Z,18.80
2023-04-04T12:35:55.946Z,18.50
2023-04-04T12:38:25.884Z,18.40
2023-04-04T12:40:54.247Z,18.30
2023-04-04T12:43:22.522Z,18.50
2023-04-04T12:45:52.232Z,18.50
2023-04-04T12:48:22.684Z,18.40
2023-04-04T12:50:53.175Z,18.40
2023-04-04T12:53:28.435Z,18.80
2023-04-04T12:56:12.122Z,19.20
2023-04-04T12:58:40.281Z,19.60
2023-04-04T13:01:08.532Z,19.60
2023-04-04T13:03:37.980Z,19.80
2023-04-04T13:06:13.147Z,19.70
2023-04-04T13:08:51.799Z,19.40
2023-04-04T13:11:21.911Z,19.30
2023-04-04T13:14:00.575Z,19.30
2023-04-04T13:16:33.699Z,19.60
2023-04-04T13:19:02.293Z,19.20
2023-04-04T13:21:30.870Z,19.00
2023-04-04T13:23:59.398Z,18.90
2023-04-04T13:26:28.952Z,18.90
2023-04-04T13:28:57.104Z,18.90
2023-04-04T13:31:25.425Z,19.10
2023-04-04T13:33:53.414Z,19.10
2023-04-04T13:36:21.687Z,19.00
2023-04-04T13:38:49.724Z,18.50
2023-04-04T13:41:18.266Z,18.70
2023-04-04T13:43:47.652Z,18.10
2023-04-04T13:46:16.511Z,18.10
2023-04-04T13:48:44.838Z,18.10
2023-04-04T13:51:12.863Z,18.40
2023-04-04T13:53:41.581Z,18.20
2023-04-04T13:58:41.030Z,19.20
2023-04-04T14:01:10.646Z,20.70
2023-04-04T14:03:38.766Z,20.40
2023-04-04T14:06:10.917Z,21.50
2023-04-04T14:08:39.896Z,21.20
2023-04-04T14:11:08.283Z,22.30
2023-04-04T14:13:37.156Z,22.80
2023-04-04T14:16:05.508Z,23.30
2023-04-04T14:18:35.483Z,23.20
2023-04-04T14:21:03.963Z,24.50
2023-04-04T14:23:32.041Z,23.80
2023-04-04T14:26:00.024Z,24.60
2023-04-04T14:28:28.573Z,25.20
2023-04-04T14:30:56.934Z,26.00
2023-04-04T14:33:25.124Z,25.50
2023-04-04T14:35:54.720Z,25.50
2023-04-04T14:38:22.738Z,26.90
2023-04-04T14:40:50.908Z,26.80
2023-04-04T14:43:19.002Z,27.00
2023-04-04T14:45:47.626Z,25.80
2023-04-04T14:48:15.609Z,25.40
2023-04-04T14:50:43.863Z,25.20
2023-04-04T14:53:13.719Z,26.50
2023-04-04T14:55:42.056Z,26.40
2023-04-04T14:58:10.209Z,26.30
2023-04-04T15:00:38.448Z,26.60
2023-04-04T15:03:08.310Z,26.60
2023-04-04T15:05:36.679Z,27.20
2023-04-04T15:08:05.077Z,28.00
2023-04-04T15:10:34.950Z,28.60
2023-04-04T15:13:03.208Z,28.30
2023-04-04T15:15:31.597Z,30.40
2023-04-04T15:17:59.644Z,29.80
2023-04-04T15:20:27.951Z,31.00
2023-04-04T15:22:56.150Z,30.80
2023-04-04T15:25:24.402Z,32.80
2023-04-04T15:27:53.747Z,32.00
2023-04-04T15:30:23.636Z,31.50
2023-04-04T15:32:54.243Z,31.90
2023-04-04T15:35:22.860Z,32.50
2023-04-04T15:37:51.480Z,32.70
2023-04-04T15:40:20.694Z,33.30
2023-04-04T15:42:49.348Z,33.80
2023-04-04T15:45:18.984Z,33.60
2023-04-04T15:47:47.455Z,33.80
2023-04-04T15:50:16.011Z,36.30
2023-04-04T15:52:44.209Z,37.50
2023-04-04T15:55:13.324Z,34.70
2023-04-04T15:57:44.247Z,34.40
2023-04-04T16:00:14.351Z,32.80
2023-04-04T16:02:44.123Z,33.50
2023-04-04T16:05:12.360Z,33.50
2023-04-04T16:07:40.706Z,33.10
2023-04-04T16:10:10.835Z,33.00
2023-04-04T16:12:39.040Z,34.00
2023-04-04T16:15:08.890Z,33.40
2023-04-04T16:17:37.540Z,33.60
2023-04-04T16:20:08.276Z,33.80
2023-04-04T16:22:36.373Z,33.90
2023-04-04T16:25:04.540Z,33.60
2023-04-04T16:27:34.030Z,33.00
2023-04-04T16:30:02.493Z,33.30
2023-04-04T16:32:31.684Z,32.60
2023-04-04T16:34:59.809Z,32.60
2023-04-04T16:37:29.261Z,32.40
2023-04-04T16:40:00.182Z,32.00
2023-04-04T16:42:28.592Z,32.50
2023-04-04T16:44:56.822Z,31.80
2023-04-04T16:47:26.748Z,33.80
2023-04-04T16:49:56.303Z,32.00
2023-04-04T16:52:24.522Z,32.40
2023-04-04T16:54:54.336Z,33.20
2023-04-04T16:57:22.527Z,33.40
2023-04-04T16:59:51.018Z,35.70
2023-04-04T17:02:19.102Z,35.60
2023-04-04T17:04:47.208Z,36.30
2023-04-04T17:07:15.466Z,36.40
2023-04-04T17:09:43.549Z,36.50
2023-04-04T17:12:13.119Z,37.20
2023-04-04T17:14:41.928Z,37.10
2023-04-04T17:17:10.334Z,37.90
2023-04-04T17:19:38.785Z,38.80
2023-04-04T17:22:06.867Z,39.80
2023-04-04T17:24:36.005Z,40.50
2023-04-04T17:27:04.535Z,40.20
2023-04-04T17:29:34.098Z,40.50
2023-04-04T17:32:02.184Z,40.20
2023-04-04T17:34:30.364Z,40.70
2023-04-04T17:36:58.728Z,41.60
2023-04-04T17:39:27.013Z,40.80
2023-04-04T17:41:56.154Z,40.50
2023-04-04T17:44:24.320Z,40.60
2023-04-04T17:46:55.222Z,40.80
2023-04-04T17:49:23.762Z,41.10
2023-04-04T17:51:52.175Z,41.00
2023-04-04T17:54:20.765Z,41.00
2023-04-04T17:56:50.194Z,40.80
2023-04-04T17:59:18.943Z,40.70
2023-04-04T18:01:47.082Z,41.30
2023-04-04T18:04:16.935Z,41.10
2023-04-04T18:06:46.607Z,41.00
2023-04-04T18:09:14.679Z,40.90
2023-04-04T18:11:42.743Z,41.00
2023-04-04T18:14:11.283Z,41.00
2023-04-04T18:16:41.020Z,41.30
2023-04-04T18:19:09.995Z,41.90
2023-04-04T18:21:39.459Z,41.60
2023-04-04T18:24:11.028Z,41.80
2023-04-04T18:26:39.448Z,41.80
2023-04-04T18:29:08.286Z,42.20
2023-04-04T18:31:36.453Z,42.60
2023-04-04T18:34:04.551Z,44.10
2023-04-04T18:36:32.794Z,46.00
2023-04-04T18:39:02.148Z,45.90
2023-04-04T18:41:30.249Z,47.70
2023-04-04T18:43:58.299Z,46.90
2023-04-04T18:46:26.551Z,47.40
2023-04-04T18:48:54.609Z,49.10
2023-04-04T18:51:23.826Z,50.00
2023-04-04T18:53:52.091Z,49.70
2023-04-04T18:56:22.545Z,52.30
2023-04-04T18:58:50.837Z,51.80
2023-04-04T19:01:19.086Z,52.20
2023-04-04T19:03:48.063Z,52.70
2023-04-04T19:06:16.664Z,52.90
2023-04-04T19:08:45.487Z,54.80
2023-04-04T19:11:15.593Z,54.30
2023-04-04T19:13:45.002Z,53.90
2023-04-04T19:16:13.084Z,55.00
2023-04-04T19:18:41.114Z,55.00
2023-04-04T19:21:10.301Z,54.60
2023-04-04T19:23:39.487Z,54.90
2023-04-04T19:26:08.074Z,55.50
2023-04-04T19:28:36.361Z,55.60
2023-04-04T19:31:10.785Z,57.20
2023-04-04T19:33:39.713Z,59.50
2023-04-04T19:36:11.003Z,59.70
2023-04-04T19:38:42.437Z,58.80
2023-04-04T19:41:14.303Z,59.70
2023-04-04T19:43:45.128Z,59.60
2023-04-04T19:46:16.442Z,59.20
2023-04-04T19:48:48.853Z,59.40
2023-04-04T19:51:40.937Z,59.70
2023-04-04T19:54:14.803Z,59.70
2023-04-04T19:56:44.415Z,59.70
2023-04-04T19:59:52.128Z,59.90
2023-04-04T20:02:46.485Z,61.20
2023-04-04T20:05:52.837Z,62.40
2023-04-04T20:08:21.581Z,62.70
2023-04-04T20:10:50.575Z,62.90
2023-04-04T20:13:20.825Z,64.20
2023-04-04T20:16:01.613Z,65.80
2023-04-04T20:18:33.715Z,65.10
2023-04-04T20:21:06.035Z,65.10
2023-04-04T20:23:42.519Z,65.10
2023-04-04T20:26:14.285Z,66.40
2023-04-04T20:28:46.436Z,66.40
2023-04-04T20:31:18.057Z,67.30
2023-04-04T20:33:47.760Z,68.10
2023-04-04T20:36:32.779Z,68.20
2023-04-04T20:39:01.109Z,68.10
2023-04-04T20:41:29.371Z,69.70
2023-04-04T20:43:59.921Z,70.90
2023-04-04T20:46:28.794Z,70.80
2023-04-04T20:48:58.637Z,74.60
2023-04-04T20:51:29.487Z,75.00
2023-04-04T20:53:59.760Z,75.50
2023-04-04T20:56:55.312Z,75.70
2023-04-04T20:59:38.340Z,75.80
2023-04-04T21:02:16.896Z,75.50
2023-04-04T21:04:49.512Z,76.00
2023-04-04T21:07:48.091Z,75.80
2023-04-04T21:10:24.745Z,76.20
2023-04-04T21:12:53.333Z,76.30
2023-04-04T21:15:26.311Z,76.30
2023-04-04T21:17:55.468Z,76.20
2023-04-04T21:21:02.824Z,76.20
2023-04-04T21:23:34.298Z,76.30
2023-04-04T21:26:03.718Z,76.40
2023-04-04T21:28:33.958Z,76.80
2023-04-04T21:31:03.342Z,76.80
2023-04-04T21:33:31.389Z,77.20
2023-04-04T21:35:59.539Z,77.10
2023-04-04T21:38:30.820Z,77.20
2023-04-04T21:41:00.791Z,76.50
2023-04-04T21:43:29.497Z,76.40
2023-04-04T21:45:58.112Z,76.60
2023-04-04T21:48:26.175Z,76.80
2023-04-04T21:50:54.784Z,77.10
2023-04-04T21:53:23.467Z,78.00
2023-04-04T21:55:51.555Z,78.10
2023-04-04T21:58:20.980Z,78.40
2023-04-04T22:00:49.308Z,80.00
2023-04-04T22:03:17.601Z,79.70
2023-04-04T22:05:45.884Z,79.80
2023-04-04T22:08:14.124Z,79.90
2023-04-04T22:10:46.339Z,79.90
2023-04-04T22:13:17.393Z,80.80
2023-04-04T22:15:47.733Z,81.60
2023-04-04T22:18:16.201Z,81.50
2023-04-04T22:20:45.482Z,82.40
2023-04-04T22:23:17.709Z,84.40
2023-04-04T22:25:45.975Z,84.70
2023-04-04T22:28:18.299Z,86.10
2023-04-04T22:30:47.745Z,89.60
2023-04-04T22:33:15.739Z,89.00
2023-04-04T22:35:45.532Z,90.00
2023-04-04T22:38:14.618Z,90.70
2023-04-04T22:40:42.848Z,90.30
2023-04-04T22:43:11.091Z,90.50
2023-04-04T22:45:39.393Z,91.00
2023-04-04T22:48:09.310Z,91.80
2023-04-04T22:50:37.976Z,91.20
2023-04-04T22:53:06.211Z,91.20
2023-04-04T22:55:34.517Z,91.40
2023-04-04T22:58:02.800Z,91.80
2023-04-04T23:00:31.278Z,91.60
2023-04-04T23:03:00.844Z,93.20
2023-04-04T23:05:31.051Z,92.50
2023-04-04T23:08:03.841Z,92.50
2023-04-04T23:10:32.369Z,92.70
2023-04-04T23:13:00.489Z,92.80
2023-04-04T23:15:28.840Z,93.30
2023-04-04T23:17:57.196Z,93.40
2023-04-04T23:20:25.266Z,93.80
2023-04-04T23:22:54.945Z,94.10
2023-04-04T23:25:22.967Z,94.10
2023-04-04T23:27:51.441Z,94.40
2023-04-04T23:30:20.067Z,94.40
2023-04-04T23:32:48.093Z,94.60
2023-04-04T23:35:16.536Z,94.70
2023-04-04T23:37:44.613Z,94.90
2023-04-04T23:40:14.747Z,95.60
2023-04-04T23:42:43.533Z,95.90
2023-04-04T23:45:12.814Z,96.30
2023-04-04T23:47:41.127Z,96.60
2023-04-04T23:50:09.830Z,96.90
2023-04-04T23:52:39.507Z,96.70
2023-04-04T23:55:08.409Z,96.90
2023-04-04T23:57:37.989Z,97.30
